Weather History for Novato, CA

Change the Weather History Date:

Thursday, October 10, 2013

  Actual Average (KAPC) Record (KAPC)
Temperature  
Mean Temperature 58 °F 60 °F  
Max Temperature 73 °F 76 °F 92 °F (1999)
Min Temperature 44 °F 44 °F 39 °F (2005)
Degree Days  
Heating Degree Days 6    
Month to date heating degree days  
Since 1 July heating degree days  
Cooling Degree Days 0    
Month to date cooling degree days  
Year to date cooling degree days  
Growing Degree Days 8 (Base 50)    
Moisture  
Dew Point 43 °F    
Average Humidity 64    
Maximum Humidity 100    
Minimum Humidity 25    
Precipitation  
Precipitation 0.06 in - 1.35 in (1947)
Month to date precipitation  
Year to date precipitation  
Since 1 July precipitation  
Sea Level Pressure  
Sea Level Pressure 29.89 in    
Wind  
Wind Speed 4 mph (ENE)    
Max Wind Speed 13 mph    
Max Gust Speed 18 mph    
Visibility 10 miles    
Events Rain    
T = Trace of Precipitation, MM = Missing Value Source: NWS Daily Summary

Daily Weather History Graph

Daily Weather History Graph

Search for Another Location

Airport:

Trip Planner

Search our weather history database for the weather conditions in past years. The results will help you decide how hot, cold, wet, or windy it might be!

Date:

Astronomy

Oct. 10, 2013 Rise Set
Actual Time 7:14 AM PDT 6:39 PM PDT
Civil Twilight 6:48 AM PDT 7:05 PM PDT
Nautical Twilight 6:17 AM PDT 7:36 PM PDT
Astronomical Twilight 5:46 AM PDT 8:06 PM PDT
Moon 1:07 PM PDT (10/10) 11:26 PM PDT (10/10)
Length of Visible Light 12h 17m
Length of Day
11h 24m
Waxing Crescent, 37% of the Moon is Illuminated
Oct 10
Waxing Crescent
Oct 11
First Quarter
Oct 18
Full
Oct 26
Last Quarter
Nov 3
New

Hourly Weather History & Observations

Time (PDT) Temp. Windchill Dew Point Humidity Pressure Visibility Wind Dir Wind Speed Gust Speed Precip Events Conditions
12:15 AM 55.4 °F - 42.8 °F 63% 29.77 in 10.0 mi SE 4.6 mph - N/A   Clear
12:35 AM 53.6 °F - 41.0 °F 62% 29.77 in 10.0 mi Calm Calm - N/A   Clear
12:55 AM 51.8 °F - 39.2 °F 62% 29.77 in 10.0 mi South 3.5 mph - N/A   Clear
1:15 AM 50.0 °F - 39.2 °F 66% 29.77 in 10.0 mi Calm Calm - N/A   Clear
1:35 AM 51.8 °F - 39.2 °F 62% 29.77 in 10.0 mi Calm Calm - N/A   Clear
1:55 AM 51.8 °F - 39.2 °F 62% 29.78 in 10.0 mi Calm Calm - N/A   Clear
2:15 AM 50.0 °F - 39.2 °F 66% 29.78 in 10.0 mi Calm Calm - N/A   Clear
2:35 AM 46.4 °F 45.2 °F 37.4 °F 71% 29.79 in 10.0 mi NW 3.5 mph - N/A   Clear
2:55 AM 48.2 °F - 39.2 °F 71% 29.79 in 10.0 mi NW 3.5 mph - N/A   Clear
3:15 AM 46.4 °F 44.3 °F 39.2 °F 76% 29.79 in 10.0 mi North 4.6 mph - N/A   Clear
3:35 AM 48.2 °F - 39.2 °F 71% 29.79 in 10.0 mi Calm Calm - N/A   Clear
3:55 AM 46.4 °F 45.2 °F 39.2 °F 76% 29.81 in 10.0 mi West 3.5 mph - N/A   Clear
4:15 AM 46.4 °F - 39.2 °F 76% 29.82 in 10.0 mi Calm Calm - N/A   Clear
4:35 AM 46.4 °F - 39.2 °F 76% 29.81 in 10.0 mi Calm Calm - N/A   Clear
4:55 AM 46.4 °F - 39.2 °F 76% 29.82 in 10.0 mi Calm Calm - N/A   Clear
5:15 AM 48.2 °F - 39.2 °F 71% 29.81 in 10.0 mi Calm Calm - N/A   Clear
5:35 AM 46.4 °F - 39.2 °F 76% 29.82 in 10.0 mi Calm Calm - N/A   Clear
5:55 AM 48.2 °F - 41.0 °F 76% 29.82 in 10.0 mi SSE 3.5 mph - N/A   Clear
6:15 AM 48.2 °F - 41.0 °F 76% 29.83 in 10.0 mi SSE 3.5 mph - N/A   Clear
6:35 AM 48.2 °F - 41.0 °F 76% 29.83 in 10.0 mi SE 3.5 mph - N/A   Clear
6:55 AM 46.4 °F - 41.0 °F 81% 29.83 in 10.0 mi Calm Calm - N/A   Clear
7:15 AM 44.6 °F - 41.0 °F 87% 29.84 in 10.0 mi Calm Calm - N/A   Clear
7:35 AM 46.4 °F 45.2 °F 41.0 °F 81% 29.85 in 10.0 mi NW 3.5 mph - N/A   Clear
7:55 AM 44.6 °F 43.1 °F 39.2 °F 81% 29.85 in 10.0 mi North 3.5 mph - N/A   Clear
8:15 AM 44.6 °F 43.1 °F 41.0 °F 87% 29.87 in 10.0 mi NNW 3.5 mph - N/A   Clear
8:35 AM 50.0 °F - 44.6 °F 82% 29.88 in 10.0 mi Calm Calm - N/A   Clear
8:55 AM 55.4 °F - 44.6 °F 67% 29.89 in 10.0 mi North 8.1 mph - N/A   Clear
9:15 AM 57.2 °F - 44.6 °F 63% 29.90 in 10.0 mi North 6.9 mph - N/A   Clear
9:35 AM 59.0 °F - 44.6 °F 59% 29.90 in 10.0 mi North 6.9 mph - N/A   Clear
9:55 AM 59.0 °F - 46.4 °F 63% 29.91 in 10.0 mi NNE 4.6 mph - N/A   Clear
10:15 AM 60.8 °F - 46.4 °F 59% 29.91 in 10.0 mi Calm Calm - N/A   Clear
10:35 AM 62.6 °F - 46.4 °F 55% 29.91 in 10.0 mi Calm Calm - N/A   Clear
10:55 AM 64.4 °F - 44.6 °F 49% 29.92 in 10.0 mi SW 3.5 mph - N/A   Clear
11:15 AM 66.2 °F - 44.6 °F 46% 29.92 in 10.0 mi ESE 3.5 mph - N/A   Clear
11:35 AM 66.2 °F - 46.4 °F 49% 29.92 in 10.0 mi SSE 4.6 mph - N/A   Clear
11:55 AM 66.2 °F - 48.2 °F 52% 29.92 in 10.0 mi East 3.5 mph - N/A   Clear
12:15 PM 68.0 °F - 42.8 °F 40% 29.92 in 10.0 mi SSE 4.6 mph - N/A   Clear
12:35 PM 69.8 °F - 44.6 °F 40% 29.91 in 10.0 mi SSE 8.1 mph - N/A   Clear
12:55 PM 71.6 °F - 37.4 °F 29% 29.91 in 10.0 mi SSE 9.2 mph - N/A   Clear
1:15 PM 73.4 °F - 35.6 °F 25% 29.91 in 10.0 mi South 8.1 mph - N/A   Clear
1:35 PM 73.4 °F - 37.4 °F 27% 29.91 in 10.0 mi SSE 8.1 mph - N/A Rain Light Rain
1:55 PM 73.4 °F - 37.4 °F 27% 29.91 in 10.0 mi SE 8.1 mph - N/A   Clear
2:15 PM 73.4 °F - 39.2 °F 29% 29.91 in 10.0 mi SE 6.9 mph - N/A   Clear
2:35 PM 73.4 °F - 39.2 °F 29% 29.91 in 10.0 mi SSE 8.1 mph - N/A   Clear
2:55 PM 73.4 °F - 39.2 °F 29% 29.91 in 10.0 mi SSE 8.1 mph - N/A   Clear
3:15 PM 73.4 °F - 39.2 °F 29% 29.91 in 10.0 mi SSE 8.1 mph - N/A   Clear
3:35 PM 73.4 °F - 39.2 °F 29% 29.91 in 10.0 mi SSE 8.1 mph - N/A   Clear
3:55 PM 73.4 °F - 41.0 °F 31% 29.91 in 10.0 mi SSE 8.1 mph - N/A   Clear
4:15 PM 73.4 °F - 41.0 °F 31% 29.91 in 10.0 mi SSE 8.1 mph - N/A   Clear
4:35 PM 73.4 °F - 39.2 °F 29% 29.91 in 10.0 mi SSE 6.9 mph - N/A   Clear
4:55 PM 73.4 °F - 39.2 °F 29% 29.91 in 10.0 mi SSE 6.9 mph - N/A   Clear
5:15 PM 73.4 °F - 39.2 °F 29% 29.92 in 10.0 mi SSE 4.6 mph - N/A   Clear
5:35 PM 69.8 °F - 46.4 °F 43% 29.92 in 10.0 mi East 5.8 mph - N/A   Clear
5:55 PM 66.2 °F - 48.2 °F 52% 29.93 in 10.0 mi NE 8.1 mph - N/A   Clear
6:15 PM 64.4 °F - 50.0 °F 59% 29.93 in 10.0 mi North 8.1 mph - N/A   Clear
6:35 PM 59.0 °F - 50.0 °F 72% 29.94 in 9.0 mi North 10.4 mph - N/A   Clear
6:55 PM 57.2 °F - 48.2 °F 72% 29.95 in 10.0 mi North 12.7 mph - N/A   Clear
7:15 PM 55.4 °F - 48.2 °F 77% 29.96 in 10.0 mi North 12.7 mph - N/A   Clear
7:35 PM 55.4 °F - 48.2 °F 77% 29.96 in 10.0 mi North 11.5 mph 18.4 mph N/A   Clear
7:55 PM 53.6 °F - 48.2 °F 82% 29.97 in 10.0 mi North 12.7 mph - N/A   Clear
8:15 PM 51.8 °F - 50.0 °F 94% 29.98 in 10.0 mi North 11.5 mph - N/A   Clear
8:35 PM 50.0 °F - 50.0 °F 100% 29.99 in 9.0 mi North 9.2 mph - N/A   Clear
8:55 PM 50.0 °F - 48.2 °F 94% 29.99 in 8.0 mi North 6.9 mph - N/A   Clear
9:15 PM 48.2 °F - 48.2 °F 100% 30.00 in 8.0 mi North 4.6 mph - 0.03 in   Clear
9:35 PM 48.2 °F - 48.2 °F 100% 30.00 in 7.0 mi North 4.6 mph - 0.06 in   Clear
9:55 PM 46.4 °F 45.2 °F 46.4 °F 100% 30.00 in 7.0 mi NNW 3.5 mph - 0.06 in   Clear
10:15 PM 46.4 °F - 46.4 °F 100% 30.00 in 8.0 mi Calm Calm - N/A   Clear
10:35 PM 46.4 °F 45.2 °F 46.4 °F 100% 30.01 in 7.0 mi NNW 3.5 mph - N/A   Clear
10:55 PM 44.6 °F 42.2 °F 44.6 °F 100% 30.01 in 7.0 mi NNW 4.6 mph - N/A   Clear
11:15 PM 46.4 °F 44.3 °F 46.4 °F 100% 30.02 in 8.0 mi NNW 4.6 mph - N/A   Clear
11:55 PM 44.6 °F 43.1 °F 44.6 °F 100% 30.02 in 10.0 mi NNW 3.5 mph - N/A   Clear